Terminal Aerodrome Forecast
Issued by NWS Wakefield, VA

Home | Current Version | Previous Version | Text Only | Print | Product List | Glossary On
Versions: 1 2 3 4 5 6 7 8 9 10 11 12 13 14 15 16 17 18 19 20 21 22 23
025
FTUS41 KAKQ 242333
TAFECG
TAF
KECG 242333Z 2500/2524 08012G18KT P6SM BKN070
     FM250300 08014G21KT 6SM -SHRA OVC035
     FM250500 08017G26KT 6SM -SHRA OVC015 WS020/10050KT
     FM251000 09012G19KT 6SM SHRA OVC020
     FM251200 13012G19KT 6SM SHRA OVC050
     FM251500 11007KT 6SM SHRA OVC040
     FM252200 13005KT 6SM -SHRA BKN040=

USA.gov is the U.S. government's official web portal to all federal, state and local government web resources and services.